createdAt,value
2022-07-28T00:00:14.026Z,14.40
2022-07-28T00:01:13.999Z,14.41
2022-07-28T00:02:14.046Z,14.44
2022-07-28T00:03:14.020Z,14.46
2022-07-28T00:04:14.427Z,14.45
2022-07-28T00:05:13.985Z,14.40
2022-07-28T00:06:13.943Z,14.36
2022-07-28T00:07:13.928Z,14.37
2022-07-28T00:08:13.920Z,14.34
2022-07-28T00:09:13.892Z,14.33
2022-07-28T00:10:13.895Z,14.36
2022-07-28T00:11:13.897Z,14.34
2022-07-28T00:12:13.871Z,14.34
2022-07-28T00:13:13.843Z,14.33
2022-07-28T00:14:14.195Z,14.37
2022-07-28T00:15:13.824Z,14.36
2022-07-28T00:16:13.872Z,14.34
2022-07-28T00:17:13.825Z,14.33
2022-07-28T00:18:13.794Z,14.28
2022-07-28T00:19:13.761Z,14.26
2022-07-28T00:20:13.759Z,14.23
2022-07-28T00:21:13.732Z,14.23
2022-07-28T00:22:13.737Z,14.23
2022-07-28T00:23:13.766Z,14.26
2022-07-28T00:24:14.073Z,14.26
2022-07-28T00:25:13.686Z,14.28
2022-07-28T00:26:13.682Z,14.27
2022-07-28T00:27:13.658Z,14.27
2022-07-28T00:28:13.662Z,14.28
2022-07-28T00:29:13.665Z,14.27
2022-07-28T00:30:13.641Z,14.26
2022-07-28T00:31:13.815Z,14.27
2022-07-28T00:32:13.598Z,14.23
2022-07-28T00:33:13.604Z,14.19
2022-07-28T00:34:13.970Z,14.21
2022-07-28T00:35:13.580Z,14.22
2022-07-28T00:36:13.559Z,14.23
2022-07-28T00:37:14.709Z,14.26
2022-07-28T00:38:13.519Z,14.28
2022-07-28T00:39:13.495Z,14.28
2022-07-28T00:40:13.499Z,14.27
2022-07-28T00:41:13.511Z,14.23
2022-07-28T00:42:13.473Z,14.22
2022-07-28T00:43:13.444Z,14.21
2022-07-28T00:44:13.958Z,14.19
2022-07-28T00:45:13.422Z,14.19
2022-07-28T00:46:13.460Z,14.19
2022-07-28T00:47:13.421Z,14.22
2022-07-28T00:48:13.399Z,14.19
2022-07-28T00:49:13.453Z,14.19
2022-07-28T00:50:13.367Z,14.15
2022-07-28T00:51:13.345Z,14.12
2022-07-28T00:52:13.344Z,14.09
2022-07-28T00:53:13.343Z,14.09
2022-07-28T00:54:13.810Z,14.11
2022-07-28T00:55:13.288Z,14.16
2022-07-28T00:56:13.291Z,14.15
2022-07-28T00:57:13.259Z,14.15
2022-07-28T00:58:13.272Z,14.13
2022-07-28T00:59:13.286Z,14.09
2022-07-28T01:00:13.238Z,14.11
2022-07-28T01:01:13.210Z,14.12
2022-07-28T01:02:13.304Z,14.08
2022-07-28T01:03:13.241Z,14.04
2022-07-28T01:04:13.595Z,14.01
2022-07-28T01:05:13.186Z,13.97
2022-07-28T01:06:13.165Z,14.00
2022-07-28T01:07:13.131Z,13.98
2022-07-28T01:08:13.136Z,14.00
2022-07-28T01:09:13.168Z,14.04
2022-07-28T01:10:13.133Z,14.09
2022-07-28T01:11:13.112Z,14.11
2022-07-28T01:12:13.095Z,14.08
2022-07-28T01:13:13.069Z,14.05
2022-07-28T01:14:13.365Z,14.05
2022-07-28T01:15:13.027Z,14.04
2022-07-28T01:17:29.669Z,14.05
2022-07-28T01:18:30.636Z,14.04
2022-07-28T01:19:30.622Z,14.05
2022-07-28T01:20:30.653Z,14.04
2022-07-28T01:21:30.584Z,14.01
2022-07-28T01:22:30.619Z,14.03
2022-07-28T01:23:30.566Z,13.98
2022-07-28T01:24:30.600Z,14.00
2022-07-28T01:25:30.537Z,13.98
2022-07-28T01:26:30.529Z,14.00
2022-07-28T01:27:30.508Z,13.98
2022-07-28T01:28:30.583Z,13.98
2022-07-28T01:29:30.478Z,13.97
2022-07-28T01:30:30.513Z,13.98
2022-07-28T01:31:30.545Z,13.97
2022-07-28T01:32:30.452Z,13.94
2022-07-28T01:33:30.428Z,13.94
2022-07-28T01:34:30.465Z,13.94
2022-07-28T01:35:30.402Z,13.94
2022-07-28T01:36:30.407Z,13.94
2022-07-28T01:37:30.369Z,13.93
2022-07-28T01:38:30.376Z,13.94
2022-07-28T01:39:30.363Z,13.91
2022-07-28T01:40:30.393Z,13.94
2022-07-28T01:41:30.325Z,13.91
2022-07-28T01:42:30.321Z,13.91
2022-07-28T01:43:30.302Z,13.90
2022-07-28T01:44:30.335Z,13.91
2022-07-28T01:45:30.268Z,13.91
2022-07-28T01:46:30.400Z,13.88
2022-07-28T01:47:30.242Z,13.85
2022-07-28T01:48:30.241Z,13.80
2022-07-28T01:49:30.212Z,13.80
2022-07-28T01:50:30.225Z,13.80
2022-07-28T01:51:30.182Z,13.80
2022-07-28T01:52:30.244Z,13.80
2022-07-28T01:53:30.162Z,13.82
2022-07-28T01:54:30.171Z,13.79
2022-07-28T01:55:30.133Z,13.78
2022-07-28T01:56:30.140Z,13.78
2022-07-28T01:57:30.121Z,13.78
2022-07-28T01:58:30.151Z,13.78
2022-07-28T01:59:30.088Z,13.76
2022-07-28T02:00:30.100Z,13.75
2022-07-28T02:01:30.141Z,13.76
2022-07-28T02:02:30.081Z,13.76
2022-07-28T02:03:30.031Z,13.76
2022-07-28T02:04:30.065Z,13.75
2022-07-28T02:05:30.100Z,13.76
2022-07-28T02:06:29.998Z,13.76
2022-07-28T02:07:29.976Z,13.78
2022-07-28T02:08:29.972Z,13.79
2022-07-28T02:09:29.983Z,13.80
2022-07-28T02:10:29.977Z,13.83
2022-07-28T02:11:29.932Z,13.82
2022-07-28T02:12:29.919Z,13.79
2022-07-28T02:13:29.895Z,13.76
2022-07-28T02:14:29.893Z,13.78
2022-07-28T02:15:29.941Z,13.78
2022-07-28T02:16:29.914Z,13.76
2022-07-28T02:17:29.840Z,13.76
2022-07-28T02:18:29.856Z,13.72
2022-07-28T02:19:29.811Z,13.72
2022-07-28T02:20:29.812Z,13.67
2022-07-28T02:21:29.787Z,13.64
2022-07-28T02:22:29.826Z,13.65
2022-07-28T02:23:29.761Z,13.64
2022-07-28T02:24:29.762Z,13.67
2022-07-28T02:25:29.737Z,13.67
2022-07-28T02:26:29.738Z,13.68
2022-07-28T02:27:29.711Z,13.71
2022-07-28T02:28:29.767Z,13.72
2022-07-28T02:29:49.719Z,13.67
2022-07-28T02:30:29.697Z,13.67
2022-07-28T02:31:29.745Z,13.64
2022-07-28T02:32:29.669Z,13.61
2022-07-28T02:33:58.960Z,13.60
2022-07-28T02:34:29.682Z,13.60
2022-07-28T02:35:29.664Z,13.58
2022-07-28T02:36:29.633Z,13.60
2022-07-28T02:37:29.579Z,13.55
2022-07-28T02:38:29.576Z,13.57
2022-07-28T02:39:29.550Z,13.54
2022-07-28T02:40:29.571Z,13.54
2022-07-28T02:41:29.536Z,13.51
2022-07-28T02:42:29.522Z,13.51
2022-07-28T02:43:50.071Z,13.47
2022-07-28T02:44:29.486Z,13.47
2022-07-28T02:45:29.481Z,13.46
2022-07-28T02:46:29.564Z,13.47
2022-07-28T02:47:29.457Z,13.46
2022-07-28T02:48:29.428Z,13.46
2022-07-28T02:49:29.439Z,13.43
2022-07-28T02:50:29.398Z,13.43
2022-07-28T02:51:29.412Z,13.45
2022-07-28T02:52:29.472Z,13.46
2022-07-28T02:53:29.398Z,13.45
2022-07-28T02:54:29.386Z,13.39
2022-07-28T02:55:29.353Z,13.39
2022-07-28T02:56:29.352Z,13.38
2022-07-28T02:57:29.325Z,13.38
2022-07-28T02:58:29.337Z,13.42
2022-07-28T02:59:29.313Z,13.39
2022-07-28T03:00:29.268Z,13.40
2022-07-28T03:01:29.335Z,13.39
2022-07-28T03:02:29.245Z,13.40
2022-07-28T03:03:29.240Z,13.40
2022-07-28T03:04:29.253Z,13.40
2022-07-28T03:05:29.265Z,13.39
2022-07-28T03:06:29.228Z,13.39
2022-07-28T03:07:29.191Z,13.39
2022-07-28T03:08:29.199Z,13.38
2022-07-28T03:09:29.166Z,13.39
2022-07-28T03:10:34.090Z,13.39
2022-07-28T03:11:29.147Z,13.38
2022-07-28T03:12:29.106Z,13.38
2022-07-28T03:13:29.121Z,13.36
2022-07-28T03:14:29.080Z,13.32
2022-07-28T03:15:29.094Z,13.35
2022-07-28T03:16:29.148Z,13.32
2022-07-28T03:17:29.006Z,13.35
2022-07-28T03:18:28.980Z,13.30
2022-07-28T03:19:28.977Z,13.30
2022-07-28T03:20:28.957Z,13.29
2022-07-28T03:21:28.947Z,13.26
2022-07-28T03:22:28.954Z,13.26
2022-07-28T03:23:28.959Z,13.24
2022-07-28T03:24:28.893Z,13.24
2022-07-28T03:25:28.913Z,13.26
2022-07-28T03:26:28.876Z,13.27
2022-07-28T03:27:28.893Z,13.30
2022-07-28T03:28:28.879Z,13.29
2022-07-28T03:29:28.851Z,13.27
2022-07-28T03:30:28.843Z,13.26
2022-07-28T03:31:28.818Z,13.26
2022-07-28T03:32:28.792Z,13.27
2022-07-28T03:33:28.810Z,13.27
2022-07-28T03:34:28.825Z,13.27
2022-07-28T03:35:28.771Z,13.29
2022-07-28T03:36:28.733Z,13.27
2022-07-28T03:37:28.731Z,13.27
2022-07-28T03:38:28.713Z,13.24
2022-07-28T03:39:32.458Z,13.24
2022-07-28T03:40:28.771Z,13.20
2022-07-28T03:41:28.693Z,13.19
2022-07-28T03:42:28.689Z,13.17
2022-07-28T03:43:28.726Z,13.16
2022-07-28T03:44:28.976Z,13.17
2022-07-28T03:45:28.641Z,13.19
2022-07-28T03:46:28.799Z,13.20
2022-07-28T03:47:28.602Z,13.19
2022-07-28T03:48:28.583Z,13.17
2022-07-28T03:49:28.582Z,13.19
2022-07-28T03:50:28.549Z,13.17
2022-07-28T03:51:28.549Z,13.14
2022-07-28T03:52:28.564Z,13.14
2022-07-28T03:53:28.540Z,13.14
2022-07-28T03:54:28.493Z,13.14
2022-07-28T03:55:28.505Z,13.13
2022-07-28T03:56:28.473Z,13.11
2022-07-28T03:57:28.471Z,13.08
2022-07-28T03:58:29.200Z,13.09
2022-07-28T03:59:28.449Z,13.09
2022-07-28T04:00:28.440Z,13.08
2022-07-28T04:01:28.454Z,13.08
2022-07-28T04:02:28.429Z,13.05
2022-07-28T04:03:43.412Z,13.08
2022-07-28T04:04:28.408Z,13.06
2022-07-28T04:05:28.369Z,13.06
2022-07-28T04:06:28.344Z,13.06
2022-07-28T04:07:28.358Z,13.05
2022-07-28T04:08:28.314Z,13.05
2022-07-28T04:09:28.322Z,13.06
2022-07-28T04:10:28.328Z,13.06
2022-07-28T04:11:28.296Z,13.05
2022-07-28T04:12:28.263Z,13.05
2022-07-28T04:13:28.262Z,13.06
2022-07-28T04:14:28.258Z,13.09
2022-07-28T04:15:28.245Z,13.09
2022-07-28T04:16:28.409Z,13.14
2022-07-28T04:17:28.210Z,13.14
2022-07-28T04:18:28.179Z,13.16
2022-07-28T04:19:28.212Z,13.17
2022-07-28T04:20:28.161Z,13.20
2022-07-28T04:21:28.158Z,13.20
2022-07-28T04:22:28.174Z,13.21
2022-07-28T04:23:28.136Z,13.23
2022-07-28T04:24:28.109Z,13.23
2022-07-28T04:25:28.104Z,13.24
2022-07-28T04:26:28.076Z,13.23
2022-07-28T04:27:28.089Z,13.27
2022-07-28T04:28:28.105Z,13.27
2022-07-28T04:29:28.050Z,13.29
2022-07-28T04:30:28.107Z,13.30
2022-07-28T04:31:28.077Z,13.32
2022-07-28T04:32:27.993Z,13.35
2022-07-28T04:33:28.014Z,13.38
2022-07-28T04:34:28.002Z,13.39
2022-07-28T04:35:27.984Z,13.43
2022-07-28T04:36:27.948Z,13.45
2022-07-28T04:37:32.419Z,13.46
2022-07-28T04:38:27.930Z,13.51
2022-07-28T04:39:27.920Z,13.55
2022-07-28T04:40:27.958Z,13.60
2022-07-28T04:41:27.897Z,13.64
2022-07-28T04:42:27.876Z,13.68
2022-07-28T04:43:27.866Z,13.75
2022-07-28T04:44:27.843Z,13.76
2022-07-28T04:45:27.839Z,13.82
2022-07-28T04:46:27.914Z,13.83
2022-07-28T04:47:27.819Z,13.85
2022-07-28T04:48:27.799Z,13.90
2022-07-28T04:49:27.794Z,13.91
2022-07-28T04:50:27.763Z,13.93
2022-07-28T04:51:27.767Z,13.93
2022-07-28T04:52:27.774Z,13.96
2022-07-28T04:53:27.732Z,13.97
2022-07-28T04:54:27.709Z,13.97
2022-07-28T04:55:27.704Z,13.98
2022-07-28T04:56:27.685Z,13.98
2022-07-28T04:57:27.675Z,14.04
2022-07-28T04:58:27.680Z,14.03
2022-07-28T04:59:27.667Z,14.03
2022-07-28T05:00:27.630Z,14.05
2022-07-28T05:01:27.673Z,14.08
2022-07-28T05:02:27.608Z,14.08
2022-07-28T05:03:30.431Z,14.11
2022-07-28T05:04:27.628Z,14.12
2022-07-28T05:05:27.577Z,14.13
2022-07-28T05:06:27.541Z,14.16
2022-07-28T05:07:27.550Z,14.19
2022-07-28T05:08:27.526Z,14.19
2022-07-28T05:09:27.518Z,14.21
2022-07-28T05:10:27.522Z,14.23
2022-07-28T05:11:27.494Z,14.26
2022-07-28T05:12:27.462Z,14.28
2022-07-28T05:13:33.433Z,14.27
2022-07-28T05:14:27.454Z,14.31
2022-07-28T05:15:27.436Z,14.34
2022-07-28T05:16:27.483Z,14.36
2022-07-28T05:17:27.411Z,14.38
2022-07-28T05:18:27.383Z,14.40
2022-07-28T05:19:27.445Z,14.44
2022-07-28T05:20:27.358Z,14.46
2022-07-28T05:21:27.355Z,14.48
2022-07-28T05:22:27.380Z,14.49
2022-07-28T05:23:27.339Z,14.51
2022-07-28T05:24:27.306Z,14.51
2022-07-28T05:25:27.304Z,14.49
2022-07-28T05:26:27.299Z,14.51
2022-07-28T05:27:27.273Z,14.55
2022-07-28T05:28:27.287Z,14.55
2022-07-28T05:29:46.850Z,14.55
2022-07-28T05:30:27.231Z,14.58
2022-07-28T05:31:27.262Z,14.58
2022-07-28T05:32:27.256Z,14.61
2022-07-28T05:33:31.831Z,14.61
2022-07-28T05:34:27.211Z,14.61
2022-07-28T05:35:27.174Z,14.64
2022-07-28T05:36:27.149Z,14.66
2022-07-28T05:37:27.147Z,14.66
2022-07-28T05:38:27.138Z,14.67
2022-07-28T05:39:27.135Z,14.66
2022-07-28T05:40:27.133Z,14.66
2022-07-28T05:41:27.085Z,14.67
2022-07-28T05:42:27.135Z,14.67
2022-07-28T05:43:27.061Z,14.69
2022-07-28T05:44:27.046Z,14.70
2022-07-28T05:45:27.099Z,14.71
2022-07-28T05:46:27.064Z,14.77
2022-07-28T05:47:27.024Z,14.78
2022-07-28T05:48:26.986Z,14.79
2022-07-28T05:49:26.988Z,14.78
2022-07-28T05:50:26.948Z,14.78
2022-07-28T05:51:26.952Z,14.83
2022-07-28T05:52:26.964Z,14.87
2022-07-28T05:53:26.964Z,14.87
2022-07-28T05:54:26.920Z,14.90
2022-07-28T05:55:26.918Z,14.92
2022-07-28T05:56:26.878Z,14.93
2022-07-28T05:57:26.886Z,14.95
2022-07-28T05:58:26.911Z,14.96
2022-07-28T05:59:26.853Z,14.93
2022-07-28T06:00:26.846Z,14.96
2022-07-28T06:01:26.906Z,14.99
2022-07-28T06:02:26.860Z,15.03
2022-07-28T06:03:26.793Z,15.07
2022-07-28T06:04:28.193Z,15.08
2022-07-28T06:05:26.820Z,15.10
2022-07-28T06:06:26.765Z,15.12
2022-07-28T06:07:43.278Z,15.15
2022-07-28T06:08:26.733Z,15.15
2022-07-28T06:09:26.754Z,15.20
2022-07-28T06:10:26.724Z,15.22
2022-07-28T06:11:26.745Z,15.26
2022-07-28T06:12:26.666Z,15.30
2022-07-28T06:13:26.667Z,15.32
2022-07-28T06:14:26.667Z,15.36
2022-07-28T06:15:26.687Z,15.41
2022-07-28T06:16:26.666Z,15.48
2022-07-28T06:17:26.704Z,15.45
2022-07-28T06:18:26.595Z,15.45
2022-07-28T06:19:26.677Z,15.48
2022-07-28T06:20:26.594Z,15.52
2022-07-28T06:21:26.585Z,15.51
2022-07-28T06:22:26.557Z,15.52
2022-07-28T06:23:26.531Z,15.56
2022-07-28T06:24:26.522Z,15.62
2022-07-28T06:25:26.519Z,15.62
2022-07-28T06:26:26.472Z,15.62
2022-07-28T06:27:26.475Z,15.63
2022-07-28T06:28:26.479Z,15.65
2022-07-28T06:29:26.459Z,15.63
2022-07-28T06:30:26.485Z,15.68
2022-07-28T06:31:26.500Z,15.68
2022-07-28T06:32:26.392Z,15.68
2022-07-28T06:33:26.431Z,15.76
2022-07-28T06:34:26.392Z,15.77
2022-07-28T06:35:26.405Z,15.84
2022-07-28T06:36:26.342Z,15.83
2022-07-28T06:37:26.359Z,15.90
2022-07-28T06:38:26.315Z,15.99
2022-07-28T06:39:26.313Z,16.00
2022-07-28T06:40:26.367Z,16.05
2022-07-28T06:41:26.287Z,16.08
2022-07-28T06:42:26.324Z,16.14
2022-07-28T06:43:26.278Z,16.16
2022-07-28T06:44:42.622Z,16.17
2022-07-28T06:45:26.269Z,16.26
2022-07-28T06:46:26.340Z,16.29
2022-07-28T06:47:26.241Z,16.29
2022-07-28T06:48:29.295Z,16.28
2022-07-28T06:49:26.259Z,16.37
2022-07-28T06:50:27.136Z,16.46
2022-07-28T06:51:26.153Z,16.49
2022-07-28T06:52:26.187Z,16.61
2022-07-28T06:53:26.202Z,16.64
2022-07-28T06:54:26.091Z,16.67
2022-07-28T06:55:26.220Z,16.70
2022-07-28T06:56:26.098Z,16.67
2022-07-28T06:57:33.455Z,16.76
2022-07-28T06:58:26.107Z,16.77
2022-07-28T06:59:26.256Z,16.87
2022-07-28T07:00:26.117Z,16.91
2022-07-28T07:01:26.089Z,17.01
2022-07-28T07:02:28.112Z,17.07
2022-07-28T07:03:26.115Z,17.04
2022-07-28T07:04:26.087Z,17.04
2022-07-28T07:05:25.968Z,17.07
2022-07-28T07:06:26.085Z,17.10
2022-07-28T07:07:25.947Z,17.06
2022-07-28T07:08:25.929Z,17.12
2022-07-28T07:09:26.166Z,17.24
2022-07-28T07:10:25.981Z,17.28
2022-07-28T07:11:25.877Z,17.31
2022-07-28T07:12:25.942Z,17.35
2022-07-28T07:13:25.847Z,17.41
2022-07-28T07:14:25.879Z,17.59
2022-07-28T07:15:25.881Z,17.69
2022-07-28T07:16:25.891Z,17.72
2022-07-28T07:17:25.825Z,17.81
2022-07-28T07:18:25.851Z,17.96
2022-07-28T07:19:25.776Z,17.88
2022-07-28T07:20:25.864Z,17.91
2022-07-28T07:21:26.294Z,18.06
2022-07-28T07:22:25.817Z,18.23
2022-07-28T07:23:25.734Z,18.20
2022-07-28T07:24:25.730Z,18.27
2022-07-28T07:25:25.688Z,18.36
2022-07-28T07:26:25.684Z,18.49
2022-07-28T07:27:25.716Z,18.64
2022-07-28T07:28:25.703Z,18.91
2022-07-28T07:29:25.651Z,18.88
2022-07-28T07:30:25.698Z,18.91
2022-07-28T07:31:25.667Z,18.98
2022-07-28T07:32:25.615Z,18.98
2022-07-28T07:33:25.643Z,18.98
2022-07-28T07:34:25.585Z,19.16
2022-07-28T07:35:25.632Z,19.26
2022-07-28T07:36:25.552Z,19.22
2022-07-28T07:37:25.568Z,19.34
2022-07-28T07:38:29.153Z,19.47
2022-07-28T07:39:25.550Z,19.67
2022-07-28T07:40:25.497Z,19.79
2022-07-28T07:41:25.510Z,19.89
2022-07-28T07:42:25.481Z,20.26
2022-07-28T07:43:25.496Z,20.61
2022-07-28T07:44:25.497Z,21.08
2022-07-28T07:45:25.434Z,21.13
2022-07-28T07:46:25.483Z,21.30
2022-07-28T07:47:25.413Z,21.51
2022-07-28T07:48:25.476Z,21.63
2022-07-28T07:49:25.437Z,21.69
2022-07-28T07:50:25.389Z,21.77
2022-07-28T07:51:25.402Z,22.03
2022-07-28T07:52:25.337Z,22.34
2022-07-28T07:53:25.313Z,22.56
2022-07-28T07:54:25.387Z,22.73
2022-07-28T07:55:25.289Z,22.13
2022-07-28T07:56:25.319Z,21.59
2022-07-28T07:57:25.261Z,21.37
2022-07-28T07:58:25.340Z,21.26
2022-07-28T07:59:25.258Z,20.90
2022-07-28T08:00:29.218Z,20.98
2022-07-28T08:01:25.295Z,21.23
2022-07-28T08:02:25.228Z,21.35
2022-07-28T08:03:26.534Z,21.58
2022-07-28T08:04:25.565Z,21.90
2022-07-28T08:05:28.694Z,22.01
2022-07-28T08:06:26.677Z,22.18
2022-07-28T08:07:25.151Z,22.38
2022-07-28T08:08:25.170Z,22.37
2022-07-28T08:09:25.180Z,22.21
2022-07-28T08:10:25.126Z,22.19
2022-07-28T08:11:25.084Z,22.03
2022-07-28T08:12:25.633Z,21.88
2022-07-28T08:13:25.145Z,21.73
2022-07-28T08:14:25.049Z,21.71
2022-07-28T08:15:25.078Z,21.67
2022-07-28T08:16:25.118Z,21.45
2022-07-28T08:17:26.101Z,21.28
2022-07-28T08:18:25.033Z,21.13
2022-07-28T08:19:25.060Z,21.11
2022-07-28T08:20:24.997Z,21.23
2022-07-28T08:21:24.994Z,21.34
2022-07-28T08:22:24.943Z,21.18
2022-07-28T08:23:26.371Z,21.05
2022-07-28T08:24:29.032Z,21.04
2022-07-28T08:25:24.920Z,21.18
2022-07-28T08:26:25.005Z,21.18
2022-07-28T08:27:24.877Z,21.23
2022-07-28T08:28:24.922Z,21.14
2022-07-28T08:29:24.875Z,20.98
2022-07-28T08:30:28.830Z,20.92
2022-07-28T08:31:24.892Z,20.90
2022-07-28T08:32:24.818Z,21.00
2022-07-28T08:33:24.786Z,21.11
2022-07-28T08:34:31.322Z,21.14
2022-07-28T08:35:34.334Z,21.13
2022-07-28T08:36:24.846Z,21.38
2022-07-28T08:37:24.729Z,21.98
2022-07-28T08:38:24.732Z,22.43
2022-07-28T08:39:24.739Z,22.96
2022-07-28T08:40:27.557Z,23.52
2022-07-28T08:41:24.701Z,23.78
2022-07-28T08:42:24.706Z,23.82
2022-07-28T08:43:24.657Z,24.18
2022-07-28T08:44:24.666Z,24.13
2022-07-28T08:45:24.646Z,23.82
2022-07-28T08:46:24.693Z,23.78
2022-07-28T08:47:24.625Z,23.56
2022-07-28T08:48:24.704Z,23.54
2022-07-28T08:49:24.669Z,23.64
2022-07-28T08:50:24.759Z,24.01
2022-07-28T08:51:24.614Z,23.61
2022-07-28T08:52:24.613Z,23.46
2022-07-28T08:53:24.525Z,23.44
2022-07-28T08:54:24.628Z,23.52
2022-07-28T08:55:24.504Z,23.54
2022-07-28T08:56:24.616Z,23.54
2022-07-28T08:57:24.462Z,23.46
2022-07-28T08:58:24.555Z,23.44
2022-07-28T08:59:24.530Z,23.45
2022-07-28T09:00:24.471Z,23.55
2022-07-28T09:01:24.486Z,23.52
2022-07-28T09:02:24.628Z,23.74
2022-07-28T09:03:24.473Z,23.88
2022-07-28T09:04:24.396Z,24.08
2022-07-28T09:05:24.389Z,24.18
2022-07-28T09:06:24.412Z,23.71
2022-07-28T09:07:24.347Z,23.39
2022-07-28T09:08:24.336Z,23.44
2022-07-28T09:09:24.334Z,23.33
2022-07-28T09:10:24.374Z,23.26
2022-07-28T09:11:24.282Z,23.21
2022-07-28T09:12:27.229Z,23.29
2022-07-28T09:13:24.307Z,23.29
2022-07-28T09:14:24.256Z,23.37
2022-07-28T09:15:24.267Z,23.48
2022-07-28T09:16:24.377Z,23.69
2022-07-28T09:17:24.339Z,23.79
2022-07-28T09:18:24.240Z,24.37
2022-07-28T09:19:24.187Z,24.75
2022-07-28T09:20:24.199Z,24.78
2022-07-28T09:21:24.339Z,24.55
2022-07-28T09:22:24.263Z,24.63
2022-07-28T09:23:42.243Z,24.45
2022-07-28T09:24:24.177Z,24.25
2022-07-28T09:25:24.115Z,23.89
2022-07-28T09:26:24.114Z,23.78
2022-07-28T09:27:24.290Z,23.64
2022-07-28T09:28:24.100Z,23.46
2022-07-28T09:29:24.068Z,23.56
2022-07-28T09:30:24.083Z,23.64
2022-07-28T09:31:24.163Z,23.73
2022-07-28T09:32:24.326Z,23.76
2022-07-28T09:33:43.047Z,23.82
2022-07-28T09:34:24.017Z,23.73
2022-07-28T09:35:24.121Z,23.86
2022-07-28T09:36:24.010Z,23.88
2022-07-28T09:37:27.334Z,24.04
2022-07-28T09:38:23.949Z,24.13
2022-07-28T09:39:23.962Z,24.25
2022-07-28T09:40:23.921Z,24.37
2022-07-28T09:41:23.981Z,24.41
2022-07-28T09:42:24.288Z,24.23
2022-07-28T09:43:23.999Z,24.15
2022-07-28T09:44:23.871Z,24.22
2022-07-28T09:45:24.854Z,24.25
2022-07-28T09:46:24.101Z,24.08
2022-07-28T09:47:24.064Z,23.97
2022-07-28T09:48:24.215Z,23.79
2022-07-28T09:49:28.481Z,23.76
2022-07-28T09:50:23.832Z,23.67
2022-07-28T09:51:23.800Z,23.82
2022-07-28T09:52:23.762Z,23.85
2022-07-28T09:53:23.763Z,24.03
2022-07-28T09:54:23.788Z,24.45
2022-07-28T09:55:23.720Z,24.45
2022-07-28T09:56:23.731Z,24.51
2022-07-28T09:57:23.746Z,24.70
2022-07-28T09:58:23.691Z,24.94
2022-07-28T09:59:23.673Z,25.14
2022-07-28T10:00:23.682Z,25.06
2022-07-28T10:01:24.427Z,25.43
2022-07-28T10:02:23.751Z,25.74
2022-07-28T10:03:23.631Z,26.11
2022-07-28T10:04:23.618Z,26.31
2022-07-28T10:05:23.880Z,26.46
2022-07-28T10:06:23.643Z,26.48
2022-07-28T10:07:23.676Z,26.49
2022-07-28T10:08:23.578Z,26.63
2022-07-28T10:09:23.550Z,26.71
2022-07-28T10:10:23.531Z,26.88
2022-07-28T10:11:23.506Z,26.79
2022-07-28T10:12:23.568Z,26.83
2022-07-28T10:13:23.502Z,27.08
2022-07-28T10:14:23.482Z,27.20
2022-07-28T10:15:31.281Z,27.23
2022-07-28T10:16:23.514Z,27.01
2022-07-28T10:17:23.434Z,27.04
2022-07-28T10:18:23.500Z,26.75
2022-07-28T10:19:23.409Z,26.53
2022-07-28T10:20:23.401Z,26.52
2022-07-28T10:21:23.385Z,26.57
2022-07-28T10:22:23.369Z,26.79
2022-07-28T10:23:23.366Z,26.88
2022-07-28T10:24:23.386Z,27.05
2022-07-28T10:25:23.349Z,27.10
2022-07-28T10:26:23.327Z,26.97
2022-07-28T10:27:23.500Z,26.95
2022-07-28T10:28:23.334Z,26.65
2022-07-28T10:29:23.336Z,26.53
2022-07-28T10:30:23.304Z,26.67
2022-07-28T10:31:23.358Z,26.97
2022-07-28T10:32:23.332Z,27.16
2022-07-28T10:33:23.257Z,27.32
2022-07-28T10:34:24.907Z,27.44
2022-07-28T10:35:23.215Z,27.32
2022-07-28T10:36:23.243Z,27.22
2022-07-28T10:37:23.181Z,26.93
2022-07-28T10:38:23.160Z,26.68
2022-07-28T10:39:23.141Z,26.63
2022-07-28T10:40:23.142Z,26.70
2022-07-28T10:41:23.162Z,26.85
2022-07-28T10:42:23.163Z,27.13
2022-07-28T10:43:23.102Z,27.22
2022-07-28T10:44:23.097Z,27.41
2022-07-28T10:45:26.498Z,27.30
2022-07-28T10:46:23.237Z,27.38
2022-07-28T10:47:23.094Z,27.26
2022-07-28T10:48:23.824Z,27.37
2022-07-28T10:49:27.616Z,27.50
2022-07-28T10:50:23.015Z,27.76
2022-07-28T10:51:23.077Z,27.82
2022-07-28T10:52:47.436Z,27.76
2022-07-28T10:53:22.969Z,28.07
2022-07-28T10:54:24.998Z,28.10
2022-07-28T10:55:22.933Z,28.16
2022-07-28T10:56:23.203Z,28.19
2022-07-28T10:57:22.912Z,28.27
2022-07-28T10:58:25.106Z,28.24
2022-07-28T10:59:22.883Z,28.25
2022-07-28T11:00:26.407Z,28.49
2022-07-28T11:01:47.075Z,27.95
2022-07-28T11:02:24.483Z,27.78
2022-07-28T11:03:23.009Z,27.72
2022-07-28T11:04:27.529Z,27.61
2022-07-28T11:05:22.818Z,27.70
2022-07-28T11:06:22.854Z,27.66
2022-07-28T11:07:22.809Z,27.63
2022-07-28T11:08:22.777Z,27.68
2022-07-28T11:09:22.800Z,27.45
2022-07-28T11:10:22.773Z,27.45
2022-07-28T11:11:22.866Z,27.37
2022-07-28T11:12:22.757Z,27.31
2022-07-28T11:13:22.711Z,27.30
2022-07-28T11:14:22.691Z,27.03
2022-07-28T11:15:22.709Z,27.04
2022-07-28T11:16:22.774Z,27.16
2022-07-28T11:17:24.366Z,27.16
2022-07-28T11:18:22.656Z,27.26
2022-07-28T11:19:36.440Z,27.12
2022-07-28T11:20:27.553Z,26.83
2022-07-28T11:21:22.616Z,26.89
2022-07-28T11:22:22.650Z,26.85
2022-07-28T11:23:22.586Z,26.86
2022-07-28T11:24:22.603Z,26.98
2022-07-28T11:25:23.076Z,26.86
2022-07-28T11:26:22.618Z,26.88
2022-07-28T11:27:22.533Z,27.04
2022-07-28T11:28:22.539Z,27.08
2022-07-28T11:29:22.514Z,27.31
2022-07-28T11:30:22.595Z,27.37
2022-07-28T11:31:22.651Z,27.19
2022-07-28T11:32:22.484Z,27.27
2022-07-28T11:33:22.458Z,27.47
2022-07-28T11:34:22.518Z,27.47
2022-07-28T11:35:22.431Z,27.60
2022-07-28T11:36:22.497Z,27.58
2022-07-28T11:37:22.496Z,27.69
2022-07-28T11:38:22.382Z,27.68
2022-07-28T11:39:22.373Z,27.73
2022-07-28T11:40:22.379Z,27.66
2022-07-28T11:41:22.347Z,27.60
2022-07-28T11:42:22.424Z,27.57
2022-07-28T11:43:28.581Z,27.66
2022-07-28T11:44:22.323Z,27.63
2022-07-28T11:45:22.313Z,27.49
2022-07-28T11:46:22.301Z,27.52
2022-07-28T11:47:22.307Z,27.38
2022-07-28T11:48:22.281Z,27.44
2022-07-28T11:49:22.390Z,27.17
2022-07-28T11:50:22.223Z,27.05
2022-07-28T11:51:22.312Z,27.15
2022-07-28T11:52:22.684Z,27.30
2022-07-28T11:53:22.208Z,27.57
2022-07-28T11:54:22.218Z,27.66
2022-07-28T11:55:22.195Z,27.54
2022-07-28T11:56:22.246Z,27.69
2022-07-28T11:57:22.158Z,27.87
2022-07-28T11:58:22.154Z,27.95
2022-07-28T11:59:22.136Z,28.12
2022-07-28T12:00:22.149Z,28.15
2022-07-28T12:01:22.172Z,28.40
2022-07-28T12:02:22.166Z,28.43
2022-07-28T12:03:23.908Z,28.42
2022-07-28T12:04:22.124Z,28.50
2022-07-28T12:05:22.047Z,28.44
2022-07-28T12:06:26.279Z,28.57
2022-07-28T12:07:22.039Z,28.59
2022-07-28T12:08:22.035Z,28.52
2022-07-28T12:09:26.351Z,28.59
2022-07-28T12:10:44.235Z,28.71
2022-07-28T12:11:22.028Z,28.72
2022-07-28T12:12:22.011Z,28.66
2022-07-28T12:13:21.958Z,28.71
2022-07-28T12:14:21.936Z,28.75
2022-07-28T12:15:22.023Z,29.02
2022-07-28T12:16:21.962Z,29.21
2022-07-28T12:17:21.911Z,28.86
2022-07-28T12:18:21.935Z,28.61
2022-07-28T12:19:21.897Z,28.27
2022-07-28T12:20:21.836Z,27.94
2022-07-28T12:21:22.060Z,27.93
2022-07-28T12:22:21.832Z,27.98
2022-07-28T12:23:21.814Z,27.94
2022-07-28T12:24:22.235Z,27.93
2022-07-28T12:25:21.808Z,28.07
2022-07-28T12:26:21.783Z,28.40
2022-07-28T12:27:25.009Z,28.84
2022-07-28T12:28:21.765Z,28.94
2022-07-28T12:29:21.756Z,28.86
2022-07-28T12:30:21.759Z,28.40
2022-07-28T12:31:21.747Z,28.38
2022-07-28T12:32:21.693Z,28.34
2022-07-28T12:33:23.906Z,28.00
2022-07-28T12:34:21.712Z,27.80
2022-07-28T12:35:21.686Z,27.91
2022-07-28T12:36:21.668Z,28.20
2022-07-28T12:37:21.649Z,28.54
2022-07-28T12:38:21.620Z,28.96
2022-07-28T12:39:21.648Z,29.43
2022-07-28T12:40:27.536Z,30.05
2022-07-28T12:41:21.599Z,29.81
2022-07-28T12:42:21.606Z,29.83
2022-07-28T12:43:21.615Z,29.36
2022-07-28T12:44:21.538Z,29.12
2022-07-28T12:45:21.567Z,28.86
2022-07-28T12:46:21.581Z,28.86
2022-07-28T12:47:21.596Z,28.65
2022-07-28T12:48:21.545Z,28.72
2022-07-28T12:49:21.543Z,29.28
2022-07-28T12:50:21.503Z,29.66
2022-07-28T12:51:21.480Z,29.83
2022-07-28T12:52:22.172Z,30.26
2022-07-28T12:53:21.473Z,30.14